sensor_id;sensor_type;location;lat;lon;timestamp;temperature;humidity
31661;DHT22;18267;52.234;7.444;2023-11-22T00:01:52;5.40;99.90
31661;DHT22;18267;52.234;7.444;2023-11-22T00:04:18;5.50;99.90
31661;DHT22;18267;52.234;7.444;2023-11-22T00:06:45;5.50;99.90
31661;DHT22;18267;52.234;7.444;2023-11-22T00:09:10;5.60;99.90
31661;DHT22;18267;52.234;7.444;2023-11-22T00:11:36;5.60;99.90
31661;DHT22;18267;52.234;7.444;2023-11-22T00:14:02;5.70;99.90
31661;DHT22;18267;52.234;7.444;2023-11-22T00:16:28;5.70;99.90
31661;DHT22;18267;52.234;7.444;2023-11-22T00:18:53;5.80;99.90
31661;DHT22;18267;52.234;7.444;2023-11-22T00:21:19;5.80;99.90
31661;DHT22;18267;52.234;7.444;2023-11-22T00:23:45;5.70;99.90
31661;DHT22;18267;52.234;7.444;2023-11-22T00:26:12;5.70;99.90
31661;DHT22;18267;52.234;7.444;2023-11-22T00:28:37;5.60;99.90
31661;DHT22;18267;52.234;7.444;2023-11-22T00:31:03;5.60;99.90
31661;DHT22;18267;52.234;7.444;2023-11-22T00:33:28;5.60;99.90
31661;DHT22;18267;52.234;7.444;2023-11-22T00:35:54;5.70;99.90
31661;DHT22;18267;52.234;7.444;2023-11-22T00:38:22;5.50;99.90
31661;DHT22;18267;52.234;7.444;2023-11-22T00:40:47;5.60;99.90
31661;DHT22;18267;52.234;7.444;2023-11-22T00:43:13;5.50;99.90
31661;DHT22;18267;52.234;7.444;2023-11-22T00:45:38;5.40;99.90
31661;DHT22;18267;52.234;7.444;2023-11-22T00:48:04;5.40;99.90
31661;DHT22;18267;52.234;7.444;2023-11-22T00:50:30;5.40;99.90
31661;DHT22;18267;52.234;7.444;2023-11-22T00:52:55;5.30;99.90
31661;DHT22;18267;52.234;7.444;2023-11-22T00:55:21;5.40;99.90
31661;DHT22;18267;52.234;7.444;2023-11-22T00:57:47;5.30;99.90
31661;DHT22;18267;52.234;7.444;2023-11-22T01:00:12;5.20;99.90
31661;DHT22;18267;52.234;7.444;2023-11-22T01:02:40;5.30;99.90
31661;DHT22;18267;52.234;7.444;2023-11-22T01:05:09;5.20;99.90
31661;DHT22;18267;52.234;7.444;2023-11-22T01:07:36;5.20;99.90
31661;DHT22;18267;52.234;7.444;2023-11-22T01:10:02;5.20;99.90
31661;DHT22;18267;52.234;7.444;2023-11-22T01:12:27;5.30;99.90
31661;DHT22;18267;52.234;7.444;2023-11-22T01:14:53;5.30;99.90
31661;DHT22;18267;52.234;7.444;2023-11-22T01:17:19;5.30;99.90
31661;DHT22;18267;52.234;7.444;2023-11-22T01:19:44;5.30;99.90
31661;DHT22;18267;52.234;7.444;2023-11-22T01:22:10;5.20;99.90
31661;DHT22;18267;52.234;7.444;2023-11-22T01:24:35;5.10;99.90
31661;DHT22;18267;52.234;7.444;2023-11-22T01:27:03;4.90;99.90
31661;DHT22;18267;52.234;7.444;2023-11-22T01:29:28;5.00;99.90
31661;DHT22;18267;52.234;7.444;2023-11-22T01:31:54;4.90;99.90
31661;DHT22;18267;52.234;7.444;2023-11-22T01:34:20;4.80;99.90
31661;DHT22;18267;52.234;7.444;2023-11-22T01:36:49;4.80;99.90
31661;DHT22;18267;52.234;7.444;2023-11-22T01:39:15;4.70;99.90
31661;DHT22;18267;52.234;7.444;2023-11-22T01:41:43;4.60;99.90
31661;DHT22;18267;52.234;7.444;2023-11-22T01:44:09;4.60;99.90
31661;DHT22;18267;52.234;7.444;2023-11-22T01:46:35;4.60;99.90
31661;DHT22;18267;52.234;7.444;2023-11-22T01:49:00;4.60;99.90
31661;DHT22;18267;52.234;7.444;2023-11-22T01:51:26;4.70;99.90
31661;DHT22;18267;52.234;7.444;2023-11-22T01:53:56;4.50;99.90
31661;DHT22;18267;52.234;7.444;2023-11-22T01:56:24;4.50;99.90
31661;DHT22;18267;52.234;7.444;2023-11-22T01:58:50;4.60;99.90
31661;DHT22;18267;52.234;7.444;2023-11-22T02:01:17;4.70;99.90
31661;DHT22;18267;52.234;7.444;2023-11-22T02:03:45;4.60;99.90
31661;DHT22;18267;52.234;7.444;2023-11-22T02:06:11;4.70;99.90
31661;DHT22;18267;52.234;7.444;2023-11-22T02:08:37;4.60;99.90
31661;DHT22;18267;52.234;7.444;2023-11-22T02:11:02;4.60;99.90
31661;DHT22;18267;52.234;7.444;2023-11-22T02:13:30;4.70;99.90
31661;DHT22;18267;52.234;7.444;2023-11-22T02:15:55;4.60;99.90
31661;DHT22;18267;52.234;7.444;2023-11-22T02:18:23;4.60;99.90
31661;DHT22;18267;52.234;7.444;2023-11-22T02:20:49;4.60;99.90
31661;DHT22;18267;52.234;7.444;2023-11-22T02:23:15;4.60;99.90
31661;DHT22;18267;52.234;7.444;2023-11-22T02:25:40;4.60;99.90
31661;DHT22;18267;52.234;7.444;2023-11-22T02:28:06;4.60;99.90
31661;DHT22;18267;52.234;7.444;2023-11-22T02:30:34;4.70;99.90
31661;DHT22;18267;52.234;7.444;2023-11-22T02:32:59;4.90;99.90
31661;DHT22;18267;52.234;7.444;2023-11-22T02:35:25;5.00;99.90
31661;DHT22;18267;52.234;7.444;2023-11-22T02:37:54;4.90;99.90
31661;DHT22;18267;52.234;7.444;2023-11-22T02:40:21;5.00;99.90
31661;DHT22;18267;52.234;7.444;2023-11-22T02:42:48;5.00;99.90
31661;DHT22;18267;52.234;7.444;2023-11-22T02:45:24;5.10;99.90
31661;DHT22;18267;52.234;7.444;2023-11-22T02:47:49;5.00;99.90
31661;DHT22;18267;52.234;7.444;2023-11-22T02:50:16;4.90;99.90
31661;DHT22;18267;52.234;7.444;2023-11-22T02:52:42;4.90;99.90
31661;DHT22;18267;52.234;7.444;2023-11-22T02:55:08;4.90;99.90
31661;DHT22;18267;52.234;7.444;2023-11-22T02:57:38;4.90;99.90
31661;DHT22;18267;52.234;7.444;2023-11-22T03:00:06;4.80;99.90
31661;DHT22;18267;52.234;7.444;2023-11-22T03:02:33;4.80;99.90
31661;DHT22;18267;52.234;7.444;2023-11-22T03:04:59;4.90;99.90
31661;DHT22;18267;52.234;7.444;2023-11-22T03:07:27;4.70;99.90
31661;DHT22;18267;52.234;7.444;2023-11-22T03:09:53;4.80;99.90
31661;DHT22;18267;52.234;7.444;2023-11-22T03:12:19;4.80;99.90
31661;DHT22;18267;52.234;7.444;2023-11-22T03:14:48;4.70;99.90
31661;DHT22;18267;52.234;7.444;2023-11-22T03:17:17;4.60;99.90
31661;DHT22;18267;52.234;7.444;2023-11-22T03:19:43;4.60;99.90
31661;DHT22;18267;52.234;7.444;2023-11-22T03:22:10;4.60;99.90
31661;DHT22;18267;52.234;7.444;2023-11-22T03:24:36;4.70;99.90
31661;DHT22;18267;52.234;7.444;2023-11-22T03:27:03;4.70;99.90
31661;DHT22;18267;52.234;7.444;2023-11-22T03:29:29;4.80;99.90
31661;DHT22;18267;52.234;7.444;2023-11-22T03:31:55;4.90;99.90
31661;DHT22;18267;52.234;7.444;2023-11-22T03:34:20;4.80;99.90
31661;DHT22;18267;52.234;7.444;2023-11-22T03:36:46;4.80;99.90
31661;DHT22;18267;52.234;7.444;2023-11-22T03:39:12;4.70;99.90
31661;DHT22;18267;52.234;7.444;2023-11-22T03:41:40;4.60;99.90
31661;DHT22;18267;52.234;7.444;2023-11-22T03:44:06;4.70;99.90
31661;DHT22;18267;52.234;7.444;2023-11-22T03:46:35;4.80;99.90
31661;DHT22;18267;52.234;7.444;2023-11-22T03:49:02;4.80;99.90
31661;DHT22;18267;52.234;7.444;2023-11-22T03:51:28;4.90;99.90
31661;DHT22;18267;52.234;7.444;2023-11-22T03:53:54;4.90;99.90
31661;DHT22;18267;52.234;7.444;2023-11-22T03:56:19;4.90;99.90
31661;DHT22;18267;52.234;7.444;2023-11-22T03:58:45;4.80;99.90
31661;DHT22;18267;52.234;7.444;2023-11-22T04:01:10;4.50;99.90
31661;DHT22;18267;52.234;7.444;2023-11-22T04:03:36;4.30;99.90
31661;DHT22;18267;52.234;7.444;2023-11-22T04:06:01;4.30;99.90
31661;DHT22;18267;52.234;7.444;2023-11-22T04:08:27;4.30;99.90
31661;DHT22;18267;52.234;7.444;2023-11-22T04:10:53;4.40;99.90
31661;DHT22;18267;52.234;7.444;2023-11-22T04:13:18;4.50;99.90
31661;DHT22;18267;52.234;7.444;2023-11-22T04:15:44;4.50;99.90
31661;DHT22;18267;52.234;7.444;2023-11-22T04:18:10;4.60;99.90
31661;DHT22;18267;52.234;7.444;2023-11-22T04:20:35;4.50;99.90
31661;DHT22;18267;52.234;7.444;2023-11-22T04:23:01;4.50;99.90
31661;DHT22;18267;52.234;7.444;2023-11-22T04:25:26;4.50;99.90
31661;DHT22;18267;52.234;7.444;2023-11-22T04:27:52;4.50;99.90
31661;DHT22;18267;52.234;7.444;2023-11-22T04:30:18;4.50;99.90
31661;DHT22;18267;52.234;7.444;2023-11-22T04:32:44;4.50;99.90
31661;DHT22;18267;52.234;7.444;2023-11-22T04:35:10;4.60;99.90
31661;DHT22;18267;52.234;7.444;2023-11-22T04:37:36;4.50;99.90
31661;DHT22;18267;52.234;7.444;2023-11-22T04:40:02;4.40;99.90
31661;DHT22;18267;52.234;7.444;2023-11-22T04:42:29;4.40;99.90
31661;DHT22;18267;52.234;7.444;2023-11-22T04:44:55;4.30;99.90
31661;DHT22;18267;52.234;7.444;2023-11-22T04:47:20;4.30;99.90
31661;DHT22;18267;52.234;7.444;2023-11-22T04:49:49;4.40;99.90
31661;DHT22;18267;52.234;7.444;2023-11-22T04:52:14;4.40;99.90
31661;DHT22;18267;52.234;7.444;2023-11-22T04:54:40;4.40;99.90
31661;DHT22;18267;52.234;7.444;2023-11-22T04:57:06;4.40;99.90
31661;DHT22;18267;52.234;7.444;2023-11-22T04:59:32;4.60;99.90
31661;DHT22;18267;52.234;7.444;2023-11-22T05:01:57;4.60;99.90
31661;DHT22;18267;52.234;7.444;2023-11-22T05:04:23;4.70;99.90
31661;DHT22;18267;52.234;7.444;2023-11-22T05:06:48;4.70;99.90
31661;DHT22;18267;52.234;7.444;2023-11-22T05:09:14;4.60;99.90
31661;DHT22;18267;52.234;7.444;2023-11-22T05:11:41;4.50;99.90
31661;DHT22;18267;52.234;7.444;2023-11-22T05:14:07;4.30;99.90
31661;DHT22;18267;52.234;7.444;2023-11-22T05:16:33;4.30;99.90
31661;DHT22;18267;52.234;7.444;2023-11-22T05:18:59;4.40;99.90
31661;DHT22;18267;52.234;7.444;2023-11-22T05:21:24;4.40;99.90
31661;DHT22;18267;52.234;7.444;2023-11-22T05:23:50;4.30;99.90
31661;DHT22;18267;52.234;7.444;2023-11-22T05:26:15;4.20;99.90
31661;DHT22;18267;52.234;7.444;2023-11-22T05:28:41;4.10;99.90
31661;DHT22;18267;52.234;7.444;2023-11-22T05:31:07;4.20;99.90
31661;DHT22;18267;52.234;7.444;2023-11-22T05:33:32;4.00;99.90
31661;DHT22;18267;52.234;7.444;2023-11-22T05:35:58;4.10;99.90
31661;DHT22;18267;52.234;7.444;2023-11-22T05:38:23;3.90;99.90
31661;DHT22;18267;52.234;7.444;2023-11-22T05:40:49;4.00;99.90
31661;DHT22;18267;52.234;7.444;2023-11-22T05:43:15;4.00;99.90
31661;DHT22;18267;52.234;7.444;2023-11-22T05:45:40;4.00;99.90
31661;DHT22;18267;52.234;7.444;2023-11-22T05:48:06;3.90;99.90
31661;DHT22;18267;52.234;7.444;2023-11-22T05:50:31;3.90;99.90
31661;DHT22;18267;52.234;7.444;2023-11-22T05:52:57;3.90;99.90
31661;DHT22;18267;52.234;7.444;2023-11-22T05:55:22;3.90;99.90
31661;DHT22;18267;52.234;7.444;2023-11-22T05:57:49;3.80;99.90
31661;DHT22;18267;52.234;7.444;2023-11-22T06:00:14;3.80;99.90
31661;DHT22;18267;52.234;7.444;2023-11-22T06:02:41;3.90;99.90
31661;DHT22;18267;52.234;7.444;2023-11-22T06:05:06;4.00;99.90
31661;DHT22;18267;52.234;7.444;2023-11-22T06:07:32;4.00;99.90
31661;DHT22;18267;52.234;7.444;2023-11-22T06:09:58;3.90;99.90
31661;DHT22;18267;52.234;7.444;2023-11-22T06:12:24;3.80;99.90
31661;DHT22;18267;52.234;7.444;2023-11-22T06:14:49;3.70;99.90
31661;DHT22;18267;52.234;7.444;2023-11-22T06:17:15;3.80;99.90
31661;DHT22;18267;52.234;7.444;2023-11-22T06:19:41;3.90;99.90
31661;DHT22;18267;52.234;7.444;2023-11-22T06:22:07;3.90;99.90
31661;DHT22;18267;52.234;7.444;2023-11-22T06:24:32;3.80;99.90
31661;DHT22;18267;52.234;7.444;2023-11-22T06:26:59;3.70;99.90
31661;DHT22;18267;52.234;7.444;2023-11-22T06:29:24;3.80;99.90
31661;DHT22;18267;52.234;7.444;2023-11-22T06:31:50;3.80;99.90
31661;DHT22;18267;52.234;7.444;2023-11-22T06:34:16;4.00;99.90
31661;DHT22;18267;52.234;7.444;2023-11-22T06:36:42;4.00;99.90
31661;DHT22;18267;52.234;7.444;2023-11-22T06:39:07;3.90;99.90
31661;DHT22;18267;52.234;7.444;2023-11-22T06:41:34;3.80;99.90
31661;DHT22;18267;52.234;7.444;2023-11-22T06:44:00;3.70;99.90
31661;DHT22;18267;52.234;7.444;2023-11-22T06:46:25;3.70;99.90
31661;DHT22;18267;52.234;7.444;2023-11-22T06:48:51;3.60;99.90
31661;DHT22;18267;52.234;7.444;2023-11-22T06:51:17;3.60;99.90
31661;DHT22;18267;52.234;7.444;2023-11-22T06:53:44;3.60;99.90
31661;DHT22;18267;52.234;7.444;2023-11-22T06:56:11;3.70;99.90
31661;DHT22;18267;52.234;7.444;2023-11-22T06:58:36;3.70;99.90
31661;DHT22;18267;52.234;7.444;2023-11-22T07:01:02;3.70;99.90
31661;DHT22;18267;52.234;7.444;2023-11-22T07:03:27;3.80;99.90
31661;DHT22;18267;52.234;7.444;2023-11-22T07:05:53;3.70;99.90
31661;DHT22;18267;52.234;7.444;2023-11-22T07:08:18;3.80;99.90
31661;DHT22;18267;52.234;7.444;2023-11-22T07:10:45;3.70;99.90
31661;DHT22;18267;52.234;7.444;2023-11-22T07:13:11;3.60;99.90
31661;DHT22;18267;52.234;7.444;2023-11-22T07:15:38;3.60;99.90
31661;DHT22;18267;52.234;7.444;2023-11-22T07:18:04;3.60;99.90
31661;DHT22;18267;52.234;7.444;2023-11-22T07:20:30;3.60;99.90
31661;DHT22;18267;52.234;7.444;2023-11-22T07:22:56;3.70;99.90
31661;DHT22;18267;52.234;7.444;2023-11-22T07:25:23;3.80;99.90
31661;DHT22;18267;52.234;7.444;2023-11-22T07:27:51;3.80;99.90
31661;DHT22;18267;52.234;7.444;2023-11-22T07:30:17;3.70;99.90
31661;DHT22;18267;52.234;7.444;2023-11-22T07:32:51;3.80;99.90
31661;DHT22;18267;52.234;7.444;2023-11-22T07:35:19;3.70;99.90
31661;DHT22;18267;52.234;7.444;2023-11-22T07:37:46;3.70;99.90
31661;DHT22;18267;52.234;7.444;2023-11-22T07:40:13;3.50;99.90
31661;DHT22;18267;52.234;7.444;2023-11-22T07:42:40;3.50;99.90
31661;DHT22;18267;52.234;7.444;2023-11-22T07:45:06;3.60;99.90
31661;DHT22;18267;52.234;7.444;2023-11-22T07:47:32;3.70;99.90
31661;DHT22;18267;52.234;7.444;2023-11-22T07:49:58;3.80;99.90
31661;DHT22;18267;52.234;7.444;2023-11-22T07:52:24;3.80;99.90
31661;DHT22;18267;52.234;7.444;2023-11-22T07:54:58;3.90;99.90
31661;DHT22;18267;52.234;7.444;2023-11-22T07:57:24;3.90;99.90
31661;DHT22;18267;52.234;7.444;2023-11-22T07:59:51;3.90;99.90
31661;DHT22;18267;52.234;7.444;2023-11-22T08:02:20;3.80;99.90
31661;DHT22;18267;52.234;7.444;2023-11-22T08:04:45;3.80;99.90
31661;DHT22;18267;52.234;7.444;2023-11-22T08:07:12;3.80;99.90
31661;DHT22;18267;52.234;7.444;2023-11-22T08:09:40;3.80;99.90
31661;DHT22;18267;52.234;7.444;2023-11-22T08:12:07;3.80;99.90
31661;DHT22;18267;52.234;7.444;2023-11-22T08:14:33;4.00;99.90
31661;DHT22;18267;52.234;7.444;2023-11-22T08:16:58;4.10;99.90
31661;DHT22;18267;52.234;7.444;2023-11-22T08:19:24;4.20;99.90
31661;DHT22;18267;52.234;7.444;2023-11-22T08:21:50;4.30;99.90
31661;DHT22;18267;52.234;7.444;2023-11-22T08:24:16;4.40;99.90
31661;DHT22;18267;52.234;7.444;2023-11-22T08:26:42;4.20;99.90
31661;DHT22;18267;52.234;7.444;2023-11-22T08:29:07;4.30;99.90
31661;DHT22;18267;52.234;7.444;2023-11-22T08:31:33;4.30;99.90
31661;DHT22;18267;52.234;7.444;2023-11-22T08:34:02;4.20;99.90
31661;DHT22;18267;52.234;7.444;2023-11-22T08:36:29;4.10;99.90
31661;DHT22;18267;52.234;7.444;2023-11-22T08:38:58;4.10;99.90
31661;DHT22;18267;52.234;7.444;2023-11-22T08:41:27;4.10;99.90
31661;DHT22;18267;52.234;7.444;2023-11-22T08:43:52;4.10;99.90
31661;DHT22;18267;52.234;7.444;2023-11-22T08:46:18;4.30;99.90
31661;DHT22;18267;52.234;7.444;2023-11-22T08:48:43;4.40;99.90
31661;DHT22;18267;52.234;7.444;2023-11-22T08:51:09;4.50;99.90
31661;DHT22;18267;52.234;7.444;2023-11-22T08:53:38;4.60;99.90
31661;DHT22;18267;52.234;7.444;2023-11-22T08:56:04;4.70;99.90
31661;DHT22;18267;52.234;7.444;2023-11-22T08:58:34;4.70;99.90
31661;DHT22;18267;52.234;7.444;2023-11-22T09:01:00;4.90;99.90
31661;DHT22;18267;52.234;7.444;2023-11-22T09:03:25;4.90;99.90
31661;DHT22;18267;52.234;7.444;2023-11-22T09:05:52;5.00;99.90
31661;DHT22;18267;52.234;7.444;2023-11-22T09:08:19;5.00;99.90
31661;DHT22;18267;52.234;7.444;2023-11-22T09:10:46;5.00;99.90
31661;DHT22;18267;52.234;7.444;2023-11-22T09:13:12;4.90;99.90
31661;DHT22;18267;52.234;7.444;2023-11-22T09:15:40;4.90;99.90
31661;DHT22;18267;52.234;7.444;2023-11-22T09:18:07;5.00;99.90
31661;DHT22;18267;52.234;7.444;2023-11-22T09:20:33;5.00;99.90
31661;DHT22;18267;52.234;7.444;2023-11-22T09:22:59;5.10;99.90
31661;DHT22;18267;52.234;7.444;2023-11-22T09:25:26;5.00;99.90
31661;DHT22;18267;52.234;7.444;2023-11-22T09:27:55;5.20;99.90
31661;DHT22;18267;52.234;7.444;2023-11-22T09:30:23;5.30;99.90
31661;DHT22;18267;52.234;7.444;2023-11-22T09:32:59;5.40;99.90
31661;DHT22;18267;52.234;7.444;2023-11-22T09:35:25;5.50;99.90
31661;DHT22;18267;52.234;7.444;2023-11-22T09:37:51;5.50;99.90
31661;DHT22;18267;52.234;7.444;2023-11-22T09:40:19;5.40;99.90
31661;DHT22;18267;52.234;7.444;2023-11-22T09:42:47;5.50;99.90
31661;DHT22;18267;52.234;7.444;2023-11-22T09:45:17;5.60;99.90
31661;DHT22;18267;52.234;7.444;2023-11-22T09:47:49;5.60;99.90
31661;DHT22;18267;52.234;7.444;2023-11-22T09:50:21;5.70;99.90
31661;DHT22;18267;52.234;7.444;2023-11-22T09:52:52;5.60;99.90
31661;DHT22;18267;52.234;7.444;2023-11-22T09:55:20;5.70;99.90
31661;DHT22;18267;52.234;7.444;2023-11-22T09:57:48;5.70;99.90
31661;DHT22;18267;52.234;7.444;2023-11-22T10:00:16;5.80;99.90
31661;DHT22;18267;52.234;7.444;2023-11-22T10:02:44;5.80;99.90
31661;DHT22;18267;52.234;7.444;2023-11-22T10:05:10;5.70;99.90
31661;DHT22;18267;52.234;7.444;2023-11-22T10:07:37;5.80;99.90
31661;DHT22;18267;52.234;7.444;2023-11-22T10:10:04;5.80;99.90
31661;DHT22;18267;52.234;7.444;2023-11-22T10:12:31;5.80;99.90
31661;DHT22;18267;52.234;7.444;2023-11-22T10:15:13;6.00;99.90
31661;DHT22;18267;52.234;7.444;2023-11-22T10:17:39;6.20;99.90
31661;DHT22;18267;52.234;7.444;2023-11-22T10:20:05;6.20;99.90
31661;DHT22;18267;52.234;7.444;2023-11-22T10:22:46;6.40;99.90
31661;DHT22;18267;52.234;7.444;2023-11-22T10:25:14;6.50;99.90
31661;DHT22;18267;52.234;7.444;2023-11-22T10:27:46;6.30;99.90
31661;DHT22;18267;52.234;7.444;2023-11-22T10:30:12;6.40;99.90
31661;DHT22;18267;52.234;7.444;2023-11-22T10:32:41;6.50;99.90
31661;DHT22;18267;52.234;7.444;2023-11-22T10:35:07;6.50;99.90
31661;DHT22;18267;52.234;7.444;2023-11-22T10:37:36;6.60;99.90
31661;DHT22;18267;52.234;7.444;2023-11-22T10:40:02;6.60;99.90
31661;DHT22;18267;52.234;7.444;2023-11-22T10:42:30;6.60;99.90
31661;DHT22;18267;52.234;7.444;2023-11-22T10:44:56;6.70;99.90
31661;DHT22;18267;52.234;7.444;2023-11-22T10:47:26;6.70;99.90
31661;DHT22;18267;52.234;7.444;2023-11-22T10:49:55;6.70;99.90
31661;DHT22;18267;52.234;7.444;2023-11-22T10:52:24;6.70;99.90
31661;DHT22;18267;52.234;7.444;2023-11-22T10:54:58;6.60;99.90
31661;DHT22;18267;52.234;7.444;2023-11-22T10:57:31;6.60;99.90
31661;DHT22;18267;52.234;7.444;2023-11-22T11:00:02;6.70;99.90
31661;DHT22;18267;52.234;7.444;2023-11-22T11:02:36;6.70;99.90
31661;DHT22;18267;52.234;7.444;2023-11-22T11:05:14;6.90;99.90
31661;DHT22;18267;52.234;7.444;2023-11-22T11:07:45;6.70;99.90
31661;DHT22;18267;52.234;7.444;2023-11-22T11:10:13;6.70;99.90
31661;DHT22;18267;52.234;7.444;2023-11-22T11:12:39;6.70;99.90
31661;DHT22;18267;52.234;7.444;2023-11-22T11:15:05;6.70;99.90
31661;DHT22;18267;52.234;7.444;2023-11-22T11:17:33;6.80;99.90
31661;DHT22;18267;52.234;7.444;2023-11-22T11:19:59;6.70;99.90
31661;DHT22;18267;52.234;7.444;2023-11-22T11:22:25;6.70;99.90
31661;DHT22;18267;52.234;7.444;2023-11-22T11:25:00;6.80;99.90
31661;DHT22;18267;52.234;7.444;2023-11-22T11:27:28;6.80;99.90
31661;DHT22;18267;52.234;7.444;2023-11-22T11:29:54;6.80;99.90
31661;DHT22;18267;52.234;7.444;2023-11-22T11:32:32;6.80;99.90
31661;DHT22;18267;52.234;7.444;2023-11-22T11:34:58;6.80;99.90
31661;DHT22;18267;52.234;7.444;2023-11-22T11:37:29;6.80;99.90
31661;DHT22;18267;52.234;7.444;2023-11-22T11:39:55;6.70;99.90
31661;DHT22;18267;52.234;7.444;2023-11-22T11:42:20;6.50;99.90
31661;DHT22;18267;52.234;7.444;2023-11-22T11:47:27;6.30;99.90
31661;DHT22;18267;52.234;7.444;2023-11-22T11:49:54;6.20;99.90
31661;DHT22;18267;52.234;7.444;2023-11-22T11:52:20;6.10;99.90
31661;DHT22;18267;52.234;7.444;2023-11-22T11:54:46;6.10;99.90
31661;DHT22;18267;52.234;7.444;2023-11-22T11:57:11;6.10;99.90
31661;DHT22;18267;52.234;7.444;2023-11-22T11:59:37;6.10;99.90
31661;DHT22;18267;52.234;7.444;2023-11-22T12:02:03;6.00;99.90
31661;DHT22;18267;52.234;7.444;2023-11-22T12:04:31;6.00;99.90
31661;DHT22;18267;52.234;7.444;2023-11-22T12:06:58;6.10;99.90
31661;DHT22;18267;52.234;7.444;2023-11-22T12:09:27;6.10;99.90
31661;DHT22;18267;52.234;7.444;2023-11-22T12:11:55;6.00;99.90
31661;DHT22;18267;52.234;7.444;2023-11-22T12:14:23;6.10;99.90
31661;DHT22;18267;52.234;7.444;2023-11-22T12:16:51;6.10;99.90
31661;DHT22;18267;52.234;7.444;2023-11-22T12:19:27;6.10;99.90
31661;DHT22;18267;52.234;7.444;2023-11-22T12:21:54;6.10;99.90
31661;DHT22;18267;52.234;7.444;2023-11-22T12:24:19;6.20;99.90
31661;DHT22;18267;52.234;7.444;2023-11-22T12:26:46;6.20;99.90
31661;DHT22;18267;52.234;7.444;2023-11-22T12:29:15;6.10;99.90
31661;DHT22;18267;52.234;7.444;2023-11-22T12:31:48;6.20;99.90
31661;DHT22;18267;52.234;7.444;2023-11-22T12:34:17;6.20;99.90
31661;DHT22;18267;52.234;7.444;2023-11-22T12:36:42;6.20;99.90
31661;DHT22;18267;52.234;7.444;2023-11-22T12:39:09;6.30;99.90
31661;DHT22;18267;52.234;7.444;2023-11-22T12:41:49;6.40;99.90
31661;DHT22;18267;52.234;7.444;2023-11-22T12:44:16;6.40;99.90
31661;DHT22;18267;52.234;7.444;2023-11-22T12:49:23;6.50;99.90
31661;DHT22;18267;52.234;7.444;2023-11-22T12:51:49;6.50;99.90
31661;DHT22;18267;52.234;7.444;2023-11-22T12:54:15;6.50;99.90
31661;DHT22;18267;52.234;7.444;2023-11-22T12:56:42;6.50;99.90
31661;DHT22;18267;52.234;7.444;2023-11-22T12:59:08;6.50;99.90
31661;DHT22;18267;52.234;7.444;2023-11-22T13:01:36;6.60;99.90
31661;DHT22;18267;52.234;7.444;2023-11-22T13:04:02;6.70;99.90
31661;DHT22;18267;52.234;7.444;2023-11-22T13:06:29;6.80;99.90
31661;DHT22;18267;52.234;7.444;2023-11-22T13:08:55;6.90;99.90
31661;DHT22;18267;52.234;7.444;2023-11-22T13:11:21;6.90;99.90
31661;DHT22;18267;52.234;7.444;2023-11-22T13:13:47;6.90;99.90
31661;DHT22;18267;52.234;7.444;2023-11-22T13:16:13;7.00;99.90
31661;DHT22;18267;52.234;7.444;2023-11-22T13:18:42;7.00;99.90
31661;DHT22;18267;52.234;7.444;2023-11-22T13:21:08;6.90;99.90
31661;DHT22;18267;52.234;7.444;2023-11-22T13:23:34;6.90;99.90
31661;DHT22;18267;52.234;7.444;2023-11-22T13:25:59;7.00;99.90
31661;DHT22;18267;52.234;7.444;2023-11-22T13:28:25;7.00;99.90
31661;DHT22;18267;52.234;7.444;2023-11-22T13:30:53;7.00;99.90
31661;DHT22;18267;52.234;7.444;2023-11-22T13:33:19;7.00;99.90
31661;DHT22;18267;52.234;7.444;2023-11-22T13:35:45;7.00;99.90
31661;DHT22;18267;52.234;7.444;2023-11-22T13:38:12;7.00;99.90
31661;DHT22;18267;52.234;7.444;2023-11-22T13:40:39;6.90;99.90
31661;DHT22;18267;52.234;7.444;2023-11-22T13:43:06;6.90;99.90
31661;DHT22;18267;52.234;7.444;2023-11-22T13:45:35;6.90;99.90
31661;DHT22;18267;52.234;7.444;2023-11-22T13:48:01;6.80;99.90
31661;DHT22;18267;52.234;7.444;2023-11-22T13:50:32;6.60;99.90
31661;DHT22;18267;52.234;7.444;2023-11-22T13:52:58;6.70;99.90
31661;DHT22;18267;52.234;7.444;2023-11-22T13:55:24;6.70;99.90
31661;DHT22;18267;52.234;7.444;2023-11-22T13:57:55;6.60;99.90
31661;DHT22;18267;52.234;7.444;2023-11-22T14:00:22;6.70;99.90
31661;DHT22;18267;52.234;7.444;2023-11-22T14:02:51;6.70;99.90
31661;DHT22;18267;52.234;7.444;2023-11-22T14:05:17;6.70;99.90
31661;DHT22;18267;52.234;7.444;2023-11-22T14:07:43;6.70;99.90
31661;DHT22;18267;52.234;7.444;2023-11-22T14:10:11;6.70;99.90
31661;DHT22;18267;52.234;7.444;2023-11-22T14:12:37;6.70;99.90
31661;DHT22;18267;52.234;7.444;2023-11-22T14:15:04;6.60;99.90
31661;DHT22;18267;52.234;7.444;2023-11-22T14:17:30;6.70;99.90
31661;DHT22;18267;52.234;7.444;2023-11-22T14:19:56;6.60;99.90
31661;DHT22;18267;52.234;7.444;2023-11-22T14:22:22;6.60;99.90
31661;DHT22;18267;52.234;7.444;2023-11-22T14:24:51;6.60;99.90
31661;DHT22;18267;52.234;7.444;2023-11-22T14:27:18;6.50;99.90
31661;DHT22;18267;52.234;7.444;2023-11-22T14:29:44;6.50;99.90
31661;DHT22;18267;52.234;7.444;2023-11-22T14:32:13;6.60;99.90
31661;DHT22;18267;52.234;7.444;2023-11-22T14:34:39;6.50;99.90
31661;DHT22;18267;52.234;7.444;2023-11-22T14:37:07;6.40;99.90
31661;DHT22;18267;52.234;7.444;2023-11-22T14:39:32;6.50;99.90
31661;DHT22;18267;52.234;7.444;2023-11-22T14:42:00;6.50;99.90
31661;DHT22;18267;52.234;7.444;2023-11-22T14:44:26;6.50;99.90
31661;DHT22;18267;52.234;7.444;2023-11-22T14:46:52;6.40;99.90
31661;DHT22;18267;52.234;7.444;2023-11-22T14:49:23;6.40;99.90
31661;DHT22;18267;52.234;7.444;2023-11-22T14:51:48;6.40;99.90
31661;DHT22;18267;52.234;7.444;2023-11-22T14:54:14;6.40;99.90
31661;DHT22;18267;52.234;7.444;2023-11-22T14:56:39;6.50;99.90
31661;DHT22;18267;52.234;7.444;2023-11-22T14:59:06;6.50;99.90
31661;DHT22;18267;52.234;7.444;2023-11-22T15:01:32;6.60;99.90
31661;DHT22;18267;52.234;7.444;2023-11-22T15:03:58;6.50;99.90
31661;DHT22;18267;52.234;7.444;2023-11-22T15:06:24;6.50;99.90
31661;DHT22;18267;52.234;7.444;2023-11-22T15:08:50;6.50;99.90
31661;DHT22;18267;52.234;7.444;2023-11-22T15:11:17;6.40;99.90
31661;DHT22;18267;52.234;7.444;2023-11-22T15:14:08;6.40;99.90
31661;DHT22;18267;52.234;7.444;2023-11-22T15:16:33;6.40;99.90
31661;DHT22;18267;52.234;7.444;2023-11-22T15:18:59;6.40;99.90
31661;DHT22;18267;52.234;7.444;2023-11-22T15:21:27;6.30;99.90
31661;DHT22;18267;52.234;7.444;2023-11-22T15:23:53;6.30;99.90
31661;DHT22;18267;52.234;7.444;2023-11-22T15:26:21;6.10;99.90
31661;DHT22;18267;52.234;7.444;2023-11-22T15:28:47;6.10;99.90
31661;DHT22;18267;52.234;7.444;2023-11-22T15:31:16;6.10;99.90
31661;DHT22;18267;52.234;7.444;2023-11-22T15:33:41;6.20;99.90
31661;DHT22;18267;52.234;7.444;2023-11-22T15:36:08;6.10;99.90
31661;DHT22;18267;52.234;7.444;2023-11-22T15:38:33;6.10;99.90
31661;DHT22;18267;52.234;7.444;2023-11-22T15:41:01;6.00;99.90
31661;DHT22;18267;52.234;7.444;2023-11-22T15:43:28;5.90;99.90
31661;DHT22;18267;52.234;7.444;2023-11-22T15:45:55;5.90;99.90
31661;DHT22;18267;52.234;7.444;2023-11-22T15:48:20;6.00;99.90